createdAt,value
2022-10-06T00:00:38.783Z,962.8
2022-10-06T00:01:40.606Z,962.8
2022-10-06T00:02:42.774Z,962.8
2022-10-06T00:03:44.619Z,962.9
2022-10-06T00:04:46.194Z,962.9
2022-10-06T00:05:47.803Z,962.9
2022-10-06T00:06:49.341Z,962.8
2022-10-06T00:07:50.900Z,962.9
2022-10-06T00:08:52.435Z,962.8
2022-10-06T00:09:54.023Z,962.8
2022-10-06T00:10:55.602Z,962.8
2022-10-06T00:11:57.127Z,962.8
2022-10-06T00:12:58.675Z,962.9
2022-10-06T00:14:00.293Z,962.8
2022-10-06T00:15:01.901Z,962.8
2022-10-06T00:16:03.630Z,962.8
2022-10-06T00:17:05.252Z,962.8
2022-10-06T00:18:06.855Z,962.8
2022-10-06T00:19:08.428Z,962.7
2022-10-06T00:20:09.972Z,962.7
2022-10-06T00:21:11.525Z,962.7
2022-10-06T00:22:13.101Z,962.8
2022-10-06T00:23:14.663Z,962.7
2022-10-06T00:24:16.215Z,962.8
2022-10-06T00:25:17.765Z,962.7
2022-10-06T00:26:19.308Z,962.7
2022-10-06T00:27:20.906Z,962.8
2022-10-06T00:28:22.804Z,962.7
2022-10-06T00:29:24.562Z,962.8
2022-10-06T00:30:26.162Z,962.8
2022-10-06T00:31:27.905Z,962.7
2022-10-06T00:32:29.618Z,962.7
2022-10-06T00:33:31.181Z,962.7
2022-10-06T00:34:32.730Z,962.7
2022-10-06T00:35:34.287Z,962.7
2022-10-06T00:36:35.886Z,962.7
2022-10-06T00:37:37.424Z,962.7
2022-10-06T00:38:38.960Z,962.7
2022-10-06T00:39:40.493Z,962.7
2022-10-06T00:40:42.121Z,962.7
2022-10-06T00:41:43.663Z,962.7
2022-10-06T00:42:45.206Z,962.7
2022-10-06T00:43:46.752Z,962.6
2022-10-06T00:44:48.522Z,962.7
2022-10-06T00:45:50.489Z,962.6
2022-10-06T00:46:52.076Z,962.7
2022-10-06T00:47:53.641Z,962.7
2022-10-06T00:48:55.185Z,962.6
2022-10-06T00:49:56.755Z,962.6
2022-10-06T00:50:58.407Z,962.6
2022-10-06T00:51:59.913Z,962.6
2022-10-06T00:53:01.453Z,962.6
2022-10-06T00:54:02.993Z,962.5
2022-10-06T00:55:04.589Z,962.5
2022-10-06T00:56:06.199Z,962.5
2022-10-06T00:57:07.747Z,962.5
2022-10-06T00:58:09.290Z,962.5
2022-10-06T00:59:10.832Z,962.5
2022-10-06T01:00:12.493Z,962.4
2022-10-06T01:01:14.293Z,962.4
2022-10-06T01:02:16.395Z,962.4
2022-10-06T01:03:18.021Z,962.5
2022-10-06T01:04:19.574Z,962.4
2022-10-06T01:05:21.118Z,962.4
2022-10-06T01:06:22.654Z,962.4
2022-10-06T01:07:24.245Z,962.4
2022-10-06T01:08:27.557Z,962.4
2022-10-06T01:09:29.982Z,962.4
2022-10-06T01:10:31.540Z,962.4
2022-10-06T01:11:33.100Z,962.4
2022-10-06T01:12:34.707Z,962.3
2022-10-06T01:13:36.269Z,962.3
2022-10-06T01:14:37.838Z,962.3
2022-10-06T01:15:39.564Z,962.3
2022-10-06T01:16:41.296Z,962.3
2022-10-06T01:17:42.878Z,962.2
2022-10-06T01:18:44.434Z,962.2
2022-10-06T01:19:45.976Z,962.2
2022-10-06T01:20:47.516Z,962.1
2022-10-06T01:21:49.099Z,962.1
2022-10-06T01:22:50.628Z,962.1
2022-10-06T01:23:52.168Z,962.1
2022-10-06T01:24:53.754Z,962.1
2022-10-06T01:25:55.349Z,962.1
2022-10-06T01:26:56.961Z,962.1
2022-10-06T01:27:58.829Z,962.1
2022-10-06T01:29:00.532Z,962.1
2022-10-06T01:30:02.094Z,962.1
2022-10-06T01:31:04.140Z,962.1
2022-10-06T01:32:06.049Z,962.2
2022-10-06T01:33:07.601Z,962.1
2022-10-06T01:34:09.151Z,962.1
2022-10-06T01:35:10.728Z,962.1
2022-10-06T01:36:12.308Z,962.1
2022-10-06T01:37:13.965Z,962.1
2022-10-06T01:38:15.511Z,962.1
2022-10-06T01:39:17.120Z,962.1
2022-10-06T01:40:18.629Z,962.1
2022-10-06T01:41:20.234Z,962.1
2022-10-06T01:42:21.779Z,962.1
2022-10-06T01:43:23.371Z,962.1
2022-10-06T01:44:24.975Z,962.1
2022-10-06T01:45:26.521Z,962.1
2022-10-06T01:46:28.358Z,962.1
2022-10-06T01:47:30.045Z,962.1
2022-10-06T01:48:33.128Z,962.1
2022-10-06T01:49:34.857Z,962.1
2022-10-06T01:50:36.401Z,962.1
2022-10-06T01:51:37.971Z,962.1
2022-10-06T01:52:39.509Z,962.1
2022-10-06T01:53:41.078Z,962.1
2022-10-06T01:54:42.678Z,962.2
2022-10-06T01:55:44.228Z,962.1
2022-10-06T01:56:45.781Z,962.1
2022-10-06T01:57:47.340Z,962.1
2022-10-06T01:58:48.900Z,962.1
2022-10-06T01:59:55.347Z,962.1
2022-10-06T02:00:56.940Z,962.1
2022-10-06T02:01:58.781Z,962.2
2022-10-06T02:03:00.576Z,962.2
2022-10-06T02:04:02.447Z,962.1
2022-10-06T02:05:04.095Z,962.1
2022-10-06T02:06:06.082Z,962.1
2022-10-06T02:07:07.719Z,962.1
2022-10-06T02:08:09.271Z,962.1
2022-10-06T02:09:10.907Z,962.1
2022-10-06T02:10:12.457Z,962.2
2022-10-06T02:11:13.998Z,962.2
2022-10-06T02:12:15.575Z,962.2
2022-10-06T02:13:17.130Z,962.2
2022-10-06T02:14:18.741Z,962.2
2022-10-06T02:15:20.287Z,962.2
2022-10-06T02:16:21.995Z,962.2
2022-10-06T02:17:23.683Z,962.3
2022-10-06T02:18:27.083Z,962.2
2022-10-06T02:19:29.407Z,962.2
2022-10-06T02:20:30.987Z,962.2
2022-10-06T02:21:32.585Z,962.2
2022-10-06T02:22:34.136Z,962.2
2022-10-06T02:23:35.677Z,962.2
2022-10-06T02:24:37.220Z,962.2
2022-10-06T02:25:38.833Z,962.2
2022-10-06T02:26:40.598Z,962.2
2022-10-06T02:27:42.205Z,962.2
2022-10-06T02:28:43.933Z,962.2
2022-10-06T02:29:45.680Z,962.2
2022-10-06T02:30:50.021Z,962.2
2022-10-06T02:31:51.756Z,962.1
2022-10-06T02:32:53.450Z,962.1
2022-10-06T02:33:55.054Z,962.1
2022-10-06T02:34:56.637Z,962.1
2022-10-06T02:35:58.179Z,962.1
2022-10-06T02:36:59.760Z,962.1
2022-10-06T02:38:01.437Z,962.1
2022-10-06T02:39:03.003Z,962.1
2022-10-06T02:40:04.636Z,962.1
2022-10-06T02:41:06.175Z,962.2
2022-10-06T02:42:07.746Z,962.2
2022-10-06T02:43:09.288Z,962.2
2022-10-06T02:44:10.842Z,962.1
2022-10-06T02:45:12.432Z,962.1
2022-10-06T02:46:14.278Z,962.2
2022-10-06T02:47:15.959Z,962.2
2022-10-06T02:48:17.706Z,962.2
2022-10-06T02:49:19.359Z,962.2
2022-10-06T02:50:20.950Z,962.2
2022-10-06T02:51:22.512Z,962.2
2022-10-06T02:52:24.047Z,962.2
2022-10-06T02:53:25.572Z,962.2
2022-10-06T02:54:27.183Z,962.2
2022-10-06T02:55:28.709Z,962.2
2022-10-06T02:56:30.300Z,962.2
2022-10-06T02:57:31.843Z,962.1
2022-10-06T02:58:33.451Z,962.1
2022-10-06T02:59:35.014Z,962.2
2022-10-06T03:00:36.551Z,962.2
2022-10-06T03:01:38.673Z,962.2
2022-10-06T03:02:41.002Z,962.2
2022-10-06T03:03:42.899Z,962.2
2022-10-06T03:04:44.578Z,962.3
2022-10-06T03:05:46.121Z,962.2
2022-10-06T03:06:47.687Z,962.2
2022-10-06T03:07:49.217Z,962.2
2022-10-06T03:08:50.766Z,962.2
2022-10-06T03:09:52.317Z,962.2
2022-10-06T03:10:53.861Z,962.2
2022-10-06T03:11:55.461Z,962.2
2022-10-06T03:12:57.035Z,962.2
2022-10-06T03:13:58.649Z,962.2
2022-10-06T03:15:00.188Z,962.2
2022-10-06T03:16:01.876Z,962.2
2022-10-06T03:17:03.631Z,962.2
2022-10-06T03:18:05.191Z,962.2
2022-10-06T03:19:06.894Z,962.2
2022-10-06T03:20:08.520Z,962.2
2022-10-06T03:21:10.070Z,962.2
2022-10-06T03:22:11.649Z,962.2
2022-10-06T03:23:14.126Z,962.2
2022-10-06T03:24:15.715Z,962.2
2022-10-06T03:25:17.303Z,962.2
2022-10-06T03:26:18.954Z,962.2
2022-10-06T03:27:20.495Z,962.2
2022-10-06T03:28:22.269Z,962.2
2022-10-06T03:29:24.048Z,962.2
2022-10-06T03:30:25.672Z,962.2
2022-10-06T03:31:27.718Z,962.2
2022-10-06T03:32:29.391Z,962.2
2022-10-06T03:33:30.959Z,962.2
2022-10-06T03:34:32.861Z,962.1
2022-10-06T03:35:34.719Z,962.1
2022-10-06T03:36:36.264Z,962.1
2022-10-06T03:37:37.801Z,962
2022-10-06T03:38:39.347Z,962
2022-10-06T03:39:40.978Z,962
2022-10-06T03:40:42.511Z,962
2022-10-06T03:41:44.056Z,962
2022-10-06T03:42:45.673Z,962
2022-10-06T03:43:47.226Z,962
2022-10-06T03:44:48.847Z,962
2022-10-06T03:45:50.391Z,962
2022-10-06T03:46:52.188Z,962
2022-10-06T03:47:53.814Z,962
2022-10-06T03:48:55.362Z,962
2022-10-06T03:49:57.018Z,962
2022-10-06T03:50:58.615Z,962
2022-10-06T03:52:00.158Z,961.9
2022-10-06T03:53:01.701Z,962
2022-10-06T03:54:03.240Z,961.9
2022-10-06T03:55:04.959Z,961.9
2022-10-06T03:56:06.517Z,961.9
2022-10-06T03:57:08.067Z,961.9
2022-10-06T03:58:09.578Z,961.9
2022-10-06T03:59:11.114Z,961.9
2022-10-06T04:00:12.745Z,961.9
2022-10-06T04:01:14.664Z,961.9
2022-10-06T04:02:16.731Z,961.9
2022-10-06T04:03:18.451Z,961.9
2022-10-06T04:04:19.986Z,961.9
2022-10-06T04:05:21.610Z,961.9
2022-10-06T04:06:23.200Z,962
2022-10-06T04:07:24.810Z,961.9
2022-10-06T04:08:28.218Z,961.9
2022-10-06T04:09:30.534Z,961.9
2022-10-06T04:10:32.117Z,962
2022-10-06T04:11:33.650Z,961.9
2022-10-06T04:12:35.229Z,961.9
2022-10-06T04:13:36.817Z,961.9
2022-10-06T04:14:38.356Z,961.9
2022-10-06T04:15:39.899Z,962
2022-10-06T04:16:41.762Z,962
2022-10-06T04:17:43.401Z,962
2022-10-06T04:18:44.973Z,962
2022-10-06T04:19:46.540Z,962
2022-10-06T04:20:48.161Z,962
2022-10-06T04:21:49.746Z,962
2022-10-06T04:22:51.352Z,962
2022-10-06T04:23:52.896Z,962
2022-10-06T04:24:54.433Z,962
2022-10-06T04:25:56.451Z,962.1
2022-10-06T04:26:57.951Z,962.1
2022-10-06T04:27:59.706Z,962.1
2022-10-06T04:29:01.428Z,962.1
2022-10-06T04:30:02.996Z,962.1
2022-10-06T04:31:04.613Z,962.1
2022-10-06T04:32:06.200Z,962.1
2022-10-06T04:33:07.758Z,962.1
2022-10-06T04:34:09.296Z,962.1
2022-10-06T04:35:10.928Z,962.1
2022-10-06T04:36:12.575Z,962.1
2022-10-06T04:37:14.351Z,962.1
2022-10-06T04:38:15.899Z,962.1
2022-10-06T04:39:17.485Z,962.1
2022-10-06T04:40:19.047Z,962.1
2022-10-06T04:41:20.619Z,962.2
2022-10-06T04:42:22.238Z,962.1
2022-10-06T04:43:23.785Z,962.1
2022-10-06T04:44:25.327Z,962.1
2022-10-06T04:45:27.132Z,962.2
2022-10-06T04:46:46.085Z,962.2
2022-10-06T04:47:47.833Z,962.2
2022-10-06T04:48:49.374Z,962.2
2022-10-06T04:49:50.946Z,962.2
2022-10-06T04:50:52.497Z,962.2
2022-10-06T04:51:54.269Z,962.2
2022-10-06T04:52:56.003Z,962.2
2022-10-06T04:53:57.540Z,962.2
2022-10-06T04:54:59.175Z,962.2
2022-10-06T04:56:00.736Z,962.2
2022-10-06T04:57:02.350Z,962.2
2022-10-06T04:58:03.883Z,962.2
2022-10-06T04:59:05.438Z,962.3
2022-10-06T05:00:15.346Z,962.2
2022-10-06T05:01:17.266Z,962.2
2022-10-06T05:02:19.497Z,962.3
2022-10-06T05:03:21.312Z,962.3
2022-10-06T05:04:22.854Z,962.3
2022-10-06T05:05:24.435Z,962.3
2022-10-06T05:06:26.049Z,962.3
2022-10-06T05:07:27.653Z,962.3
2022-10-06T05:08:30.378Z,962.3
2022-10-06T05:09:32.540Z,962.3
2022-10-06T05:10:34.087Z,962.3
2022-10-06T05:11:35.645Z,962.3
2022-10-06T05:12:37.304Z,962.3
2022-10-06T05:13:38.894Z,962.3
2022-10-06T05:14:40.515Z,962.4
2022-10-06T05:15:42.053Z,962.4
2022-10-06T05:16:44.005Z,962.4
2022-10-06T05:17:45.849Z,962.3
2022-10-06T05:18:47.399Z,962.4
2022-10-06T05:19:48.945Z,962.4
2022-10-06T05:20:50.481Z,962.3
2022-10-06T05:21:52.016Z,962.4
2022-10-06T05:22:53.670Z,962.3
2022-10-06T05:23:55.316Z,962.3
2022-10-06T05:24:56.878Z,962.4
2022-10-06T05:25:58.414Z,962.3
2022-10-06T05:27:02.469Z,962.4
2022-10-06T05:28:04.269Z,962.3
2022-10-06T05:29:05.961Z,962.4
2022-10-06T05:30:07.704Z,962.3
2022-10-06T05:31:09.268Z,962.3
2022-10-06T05:32:10.865Z,962.3
2022-10-06T05:33:12.413Z,962.4
2022-10-06T05:34:13.988Z,962.3
2022-10-06T05:35:15.623Z,962.4
2022-10-06T05:36:17.178Z,962.4
2022-10-06T05:37:18.796Z,962.4
2022-10-06T05:38:20.409Z,962.4
2022-10-06T05:39:22.125Z,962.4
2022-10-06T05:40:23.659Z,962.4
2022-10-06T05:41:25.205Z,962.3
2022-10-06T05:42:30.316Z,962.3
2022-10-06T05:43:31.946Z,962.4
2022-10-06T05:44:33.501Z,962.3
2022-10-06T05:45:35.219Z,962.3
2022-10-06T05:46:36.794Z,962.3
2022-10-06T05:47:38.410Z,962.3
2022-10-06T05:48:40.048Z,962.3
2022-10-06T05:49:41.591Z,962.4
2022-10-06T05:50:43.170Z,962.4
2022-10-06T05:51:44.710Z,962.4
2022-10-06T05:52:46.320Z,962.4
2022-10-06T05:53:47.907Z,962.4
2022-10-06T05:54:49.534Z,962.4
2022-10-06T05:55:51.091Z,962.4
2022-10-06T05:56:52.630Z,962.4
2022-10-06T05:57:54.238Z,962.4
2022-10-06T05:58:55.783Z,962.4
2022-10-06T05:59:57.322Z,962.3
2022-10-06T06:00:58.868Z,962.4
2022-10-06T06:02:01.093Z,962.4
2022-10-06T06:03:03.333Z,962.4
2022-10-06T06:04:05.043Z,962.4
2022-10-06T06:05:06.581Z,962.4
2022-10-06T06:06:08.112Z,962.4
2022-10-06T06:07:09.654Z,962.4
2022-10-06T06:08:11.215Z,962.4
2022-10-06T06:09:12.896Z,962.4
2022-10-06T06:10:14.655Z,962.4
2022-10-06T06:11:16.201Z,962.4
2022-10-06T06:12:17.737Z,962.4
2022-10-06T06:13:19.294Z,962.4
2022-10-06T06:14:20.904Z,962.4
2022-10-06T06:15:22.449Z,962.4
2022-10-06T06:16:24.211Z,962.4
2022-10-06T06:17:25.855Z,962.4
2022-10-06T06:18:29.089Z,962.4
2022-10-06T06:19:31.527Z,962.4
2022-10-06T06:20:33.147Z,962.4
2022-10-06T06:21:34.843Z,962.4
2022-10-06T06:22:36.434Z,962.4
2022-10-06T06:23:37.962Z,962.4
2022-10-06T06:24:39.565Z,962.4
2022-10-06T06:25:41.209Z,962.4
2022-10-06T06:26:42.756Z,962.4
2022-10-06T06:27:44.300Z,962.4
2022-10-06T06:28:46.107Z,962.4
2022-10-06T06:29:48.004Z,962.4
2022-10-06T06:30:49.740Z,962.4
2022-10-06T06:31:51.540Z,962.4
2022-10-06T06:32:53.097Z,962.5
2022-10-06T06:33:54.694Z,962.5
2022-10-06T06:34:56.260Z,962.4
2022-10-06T06:35:57.854Z,962.5
2022-10-06T06:37:12.880Z,962.5
2022-10-06T06:38:17.048Z,962.5
2022-10-06T06:39:18.623Z,962.5
2022-10-06T06:40:20.223Z,962.5
2022-10-06T06:41:21.803Z,962.4
2022-10-06T06:42:23.403Z,962.5
2022-10-06T06:43:24.952Z,962.5
2022-10-06T06:44:26.505Z,962.5
2022-10-06T06:45:28.048Z,962.5
2022-10-06T06:46:29.994Z,962.5
2022-10-06T06:47:31.961Z,962.5
2022-10-06T06:48:34.337Z,962.5
2022-10-06T06:49:35.886Z,962.5
2022-10-06T06:50:37.439Z,962.5
2022-10-06T06:51:39.020Z,962.5
2022-10-06T06:52:40.556Z,962.5
2022-10-06T06:53:42.138Z,962.5
2022-10-06T06:54:43.726Z,962.5
2022-10-06T06:55:45.310Z,962.4
2022-10-06T06:56:46.931Z,962.4
2022-10-06T06:57:48.478Z,962.5
2022-10-06T06:58:50.019Z,962.4
2022-10-06T06:59:51.603Z,962.4
2022-10-06T07:00:53.322Z,962.4
2022-10-06T07:01:55.256Z,962.4
2022-10-06T07:02:56.912Z,962.4
2022-10-06T07:03:59.631Z,962.4
2022-10-06T07:05:01.257Z,962.4
2022-10-06T07:06:02.820Z,962.4
2022-10-06T07:07:04.396Z,962.4
2022-10-06T07:08:05.949Z,962.4
2022-10-06T07:09:07.578Z,962.4
2022-10-06T07:10:09.123Z,962.4
2022-10-06T07:11:10.722Z,962.4
2022-10-06T07:12:12.384Z,962.4
2022-10-06T07:13:13.912Z,962.4
2022-10-06T07:14:15.469Z,962.4
2022-10-06T07:15:17.014Z,962.4
2022-10-06T07:16:18.789Z,962.4
2022-10-06T07:17:20.491Z,962.4
2022-10-06T07:18:22.065Z,962.3
2022-10-06T07:19:25.422Z,962.3
2022-10-06T07:20:26.963Z,962.3
2022-10-06T07:21:28.506Z,962.3
2022-10-06T07:22:30.115Z,962.3
2022-10-06T07:23:31.671Z,962.3
2022-10-06T07:24:33.231Z,962.3
2022-10-06T07:25:34.835Z,962.3
2022-10-06T07:26:36.469Z,962.3
2022-10-06T07:27:38.049Z,962.2
2022-10-06T07:28:39.791Z,962.2
2022-10-06T07:29:41.648Z,962.3
2022-10-06T07:30:43.227Z,962.2
2022-10-06T07:31:44.937Z,962.2
2022-10-06T07:32:46.651Z,962.2
2022-10-06T07:33:48.199Z,962.2
2022-10-06T07:34:50.525Z,962.2
2022-10-06T07:35:52.908Z,962.2
2022-10-06T07:36:54.519Z,962.2
2022-10-06T07:37:56.138Z,962.2
2022-10-06T07:38:57.728Z,962.2
2022-10-06T07:39:59.274Z,962.2
2022-10-06T07:41:20.805Z,962.2
2022-10-06T07:42:22.628Z,962.2
2022-10-06T07:43:24.352Z,962.2
2022-10-06T07:44:25.892Z,962.2
2022-10-06T07:45:27.452Z,962.2
2022-10-06T07:46:29.507Z,962.2
2022-10-06T07:47:31.258Z,962.2
2022-10-06T07:48:32.802Z,962.2
2022-10-06T07:49:34.490Z,962.2
2022-10-06T07:50:36.025Z,962.2
2022-10-06T07:51:37.614Z,962.2
2022-10-06T07:52:39.646Z,962.2
2022-10-06T07:53:41.347Z,962.2
2022-10-06T07:54:42.911Z,962.2
2022-10-06T07:55:44.488Z,962.2
2022-10-06T07:56:46.066Z,962.2
2022-10-06T07:57:47.735Z,962.2
2022-10-06T07:58:49.348Z,962.2
2022-10-06T07:59:50.944Z,962.2
2022-10-06T08:00:52.507Z,962.2
2022-10-06T08:01:54.153Z,962.2
2022-10-06T08:02:56.109Z,962.2
2022-10-06T08:03:57.855Z,962.2
2022-10-06T08:04:59.467Z,962.2
2022-10-06T08:06:01.013Z,962.2
2022-10-06T08:07:02.565Z,962.2
2022-10-06T08:08:04.122Z,962.2
2022-10-06T08:09:05.691Z,962.2
2022-10-06T08:10:07.278Z,962.1
2022-10-06T08:11:08.903Z,962.2
2022-10-06T08:12:10.700Z,962.1
2022-10-06T08:13:12.386Z,962.2
2022-10-06T08:14:14.028Z,962.1
2022-10-06T08:15:15.590Z,962.2
2022-10-06T08:16:17.626Z,962.2
2022-10-06T08:17:19.562Z,962.2
2022-10-06T08:18:47.425Z,962.2
2022-10-06T08:19:49.193Z,962.2
2022-10-06T08:20:51.089Z,962.2
2022-10-06T08:21:52.826Z,962.2
2022-10-06T08:22:54.409Z,962.1
2022-10-06T08:23:56.001Z,962.2
2022-10-06T08:25:09.334Z,962.2
2022-10-06T08:26:12.033Z,962.1
2022-10-06T08:27:13.596Z,962.1
2022-10-06T08:28:15.723Z,962.1
2022-10-06T08:29:17.603Z,962.1
2022-10-06T08:30:19.291Z,962.1
2022-10-06T08:31:21.374Z,962.1
2022-10-06T08:32:23.285Z,962.1
2022-10-06T08:33:24.839Z,962.1
2022-10-06T08:34:26.468Z,962.1
2022-10-06T08:35:28.003Z,962.1
2022-10-06T08:36:32.989Z,962.1
2022-10-06T08:37:34.567Z,962.1
2022-10-06T08:38:36.186Z,962.1
2022-10-06T08:39:37.732Z,962.1
2022-10-06T08:40:39.375Z,962.1
2022-10-06T08:41:40.948Z,962
2022-10-06T08:42:42.803Z,962
2022-10-06T08:43:44.491Z,962
2022-10-06T08:44:46.122Z,962
2022-10-06T08:45:47.963Z,962
2022-10-06T08:46:49.607Z,962
2022-10-06T08:47:51.261Z,962
2022-10-06T08:48:52.865Z,962
2022-10-06T08:49:55.519Z,962
2022-10-06T08:50:58.032Z,962
2022-10-06T08:51:59.565Z,962
2022-10-06T08:53:01.113Z,962
2022-10-06T08:54:02.661Z,962
2022-10-06T08:55:04.213Z,962
2022-10-06T08:56:05.860Z,962
2022-10-06T08:57:07.428Z,962
2022-10-06T08:59:10.826Z,962
2022-10-06T09:00:12.417Z,961.9
2022-10-06T09:01:14.414Z,961.9
2022-10-06T09:02:16.400Z,962
2022-10-06T09:03:18.030Z,962
2022-10-06T09:04:19.586Z,962
2022-10-06T09:05:21.147Z,962
2022-10-06T09:06:22.736Z,962
2022-10-06T09:07:24.305Z,962
2022-10-06T09:08:25.898Z,962
2022-10-06T09:09:30.142Z,962
2022-10-06T09:10:31.702Z,962
2022-10-06T09:11:33.254Z,962
2022-10-06T09:12:34.789Z,962
2022-10-06T09:13:36.396Z,962
2022-10-06T09:14:38.217Z,961.9
2022-10-06T09:15:40.083Z,962
2022-10-06T09:16:41.803Z,961.9
2022-10-06T09:17:43.387Z,961.9
2022-10-06T09:19:09.718Z,961.9
2022-10-06T09:20:11.455Z,961.9
2022-10-06T09:21:12.992Z,961.9
2022-10-06T09:22:14.625Z,961.9
2022-10-06T09:23:16.435Z,961.9
2022-10-06T09:24:18.307Z,961.9
2022-10-06T09:25:19.856Z,961.9
2022-10-06T09:26:21.403Z,961.8
2022-10-06T09:27:22.963Z,961.9
2022-10-06T09:28:24.688Z,961.9
2022-10-06T09:29:26.346Z,961.9
2022-10-06T09:30:27.955Z,961.8
2022-10-06T09:31:29.960Z,961.8
2022-10-06T09:32:34.601Z,961.8
2022-10-06T09:33:36.231Z,961.8
2022-10-06T09:34:37.836Z,961.8
2022-10-06T09:35:39.388Z,961.8
2022-10-06T09:36:40.937Z,961.8
2022-10-06T09:37:42.502Z,961.7
2022-10-06T09:38:44.169Z,961.8
2022-10-06T09:39:45.707Z,961.7
2022-10-06T09:40:47.257Z,961.7
2022-10-06T09:41:48.856Z,961.7
2022-10-06T09:42:50.408Z,961.7
2022-10-06T09:43:51.954Z,961.7
2022-10-06T09:44:54.308Z,961.7
2022-10-06T09:45:58.483Z,961.7
2022-10-06T09:47:00.524Z,961.7
2022-10-06T09:48:02.082Z,961.7
2022-10-06T09:49:03.691Z,961.6
2022-10-06T09:50:05.295Z,961.7
2022-10-06T09:51:06.835Z,961.6
2022-10-06T09:52:08.377Z,961.6
2022-10-06T09:53:09.985Z,961.6
2022-10-06T09:54:11.528Z,961.6
2022-10-06T09:55:13.082Z,961.5
2022-10-06T09:56:14.715Z,961.6
2022-10-06T09:57:16.270Z,961.6
2022-10-06T09:58:17.941Z,961.5
2022-10-06T09:59:19.508Z,961.5
2022-10-06T10:00:21.188Z,961.6
2022-10-06T10:01:23.132Z,961.5
2022-10-06T10:02:25.003Z,961.6
2022-10-06T10:03:26.623Z,961.5
2022-10-06T10:04:28.259Z,961.5
2022-10-06T10:05:29.883Z,961.5
2022-10-06T10:06:31.566Z,961.5
2022-10-06T10:07:33.144Z,961.5
2022-10-06T10:09:37.485Z,961.5
2022-10-06T10:10:39.056Z,961.5
2022-10-06T10:11:40.599Z,961.4
2022-10-06T10:12:42.216Z,961.4
2022-10-06T10:13:43.817Z,961.4
2022-10-06T10:14:45.434Z,961.4
2022-10-06T10:15:47.104Z,961.4
2022-10-06T10:16:53.701Z,961.4
2022-10-06T10:17:55.396Z,961.4
2022-10-06T10:18:56.955Z,961.4
2022-10-06T10:19:59.624Z,961.4
2022-10-06T10:21:04.651Z,961.4
2022-10-06T10:22:06.237Z,961.4
2022-10-06T10:23:07.803Z,961.4
2022-10-06T10:24:09.350Z,961.3
2022-10-06T10:25:10.916Z,961.4
2022-10-06T10:26:12.525Z,961.3
2022-10-06T10:27:14.067Z,961.4
2022-10-06T10:28:15.903Z,961.3
2022-10-06T10:29:17.523Z,961.3
2022-10-06T10:30:19.080Z,961.3
2022-10-06T10:31:20.949Z,961.3
2022-10-06T10:32:22.916Z,961.3
2022-10-06T10:33:24.547Z,961.2
2022-10-06T10:34:26.139Z,961.2
2022-10-06T10:35:27.756Z,961.2
2022-10-06T10:36:29.339Z,961.2
2022-10-06T10:37:30.985Z,961.2
2022-10-06T10:38:32.564Z,961.2
2022-10-06T10:39:34.110Z,961.2
2022-10-06T10:40:35.766Z,961.2
2022-10-06T10:41:37.386Z,961.1
2022-10-06T10:42:38.969Z,961.1
2022-10-06T10:43:40.528Z,961.1
2022-10-06T10:44:42.083Z,961.1
2022-10-06T10:45:43.728Z,961.1
2022-10-06T10:46:45.430Z,961.1
2022-10-06T10:47:47.115Z,961.1
2022-10-06T10:48:48.731Z,961
2022-10-06T10:49:50.328Z,961.1
2022-10-06T10:50:51.862Z,961
2022-10-06T10:51:53.406Z,961
2022-10-06T10:52:54.994Z,961
2022-10-06T10:53:56.550Z,961
2022-10-06T10:54:59.752Z,960.9
2022-10-06T10:56:02.087Z,960.9
2022-10-06T10:57:03.694Z,960.9
2022-10-06T10:58:05.246Z,960.9
2022-10-06T10:59:06.885Z,960.9
2022-10-06T11:00:08.429Z,960.9
2022-10-06T11:01:10.196Z,960.9
2022-10-06T11:02:12.243Z,960.9
2022-10-06T11:03:14.047Z,960.9
2022-10-06T11:04:15.690Z,960.9
2022-10-06T11:05:17.254Z,960.9
2022-10-06T11:06:18.808Z,960.9
2022-10-06T11:07:20.363Z,960.9
2022-10-06T11:08:21.957Z,960.9
2022-10-06T11:09:23.527Z,960.9
2022-10-06T11:10:25.228Z,960.9
2022-10-06T11:11:26.919Z,960.9
2022-10-06T11:12:28.648Z,960.8
2022-10-06T11:13:30.234Z,960.8
2022-10-06T11:14:31.785Z,960.8
2022-10-06T11:15:33.353Z,960.7
2022-10-06T11:16:35.034Z,960.8
2022-10-06T11:17:36.763Z,960.7
2022-10-06T11:18:38.436Z,960.7
2022-10-06T11:19:40.142Z,960.7
2022-10-06T11:20:41.824Z,960.7
2022-10-06T11:21:43.444Z,960.7
2022-10-06T11:22:45.007Z,960.7
2022-10-06T11:23:46.615Z,960.7
2022-10-06T11:24:48.369Z,960.7
2022-10-06T11:25:50.047Z,960.7
2022-10-06T11:26:51.615Z,960.7
2022-10-06T11:27:53.163Z,960.6
2022-10-06T11:28:54.759Z,960.6
2022-10-06T11:29:57.648Z,960.6
2022-10-06T11:30:59.768Z,960.6
2022-10-06T11:32:01.451Z,960.6
2022-10-06T11:33:03.098Z,960.6
2022-10-06T11:34:04.698Z,960.6
2022-10-06T11:35:06.331Z,960.5
2022-10-06T11:36:07.890Z,960.5
2022-10-06T11:37:09.438Z,960.5
2022-10-06T11:38:10.983Z,960.4
2022-10-06T11:39:12.566Z,960.4
2022-10-06T11:40:14.203Z,960.5
2022-10-06T11:41:15.747Z,960.4
2022-10-06T11:42:17.493Z,960.4
2022-10-06T11:43:19.229Z,960.4
2022-10-06T11:44:20.778Z,960.4
2022-10-06T11:45:22.330Z,960.4
2022-10-06T11:46:24.179Z,960.4
2022-10-06T11:47:36.567Z,960.4
2022-10-06T11:48:38.117Z,960.4
2022-10-06T11:49:39.751Z,960.4
2022-10-06T11:50:41.370Z,960.3
2022-10-06T11:51:42.985Z,960.3
2022-10-06T11:52:44.533Z,960.3
2022-10-06T11:53:46.078Z,960.3
2022-10-06T11:54:47.633Z,960.3
2022-10-06T11:55:49.205Z,960.2
2022-10-06T11:56:50.802Z,960.3
2022-10-06T11:57:52.383Z,960.2
2022-10-06T11:58:53.923Z,960.3
2022-10-06T11:59:55.462Z,960.3
2022-10-06T12:00:57.018Z,960.3
2022-10-06T12:01:59.442Z,960.2
2022-10-06T12:03:01.919Z,960.2
2022-10-06T12:04:03.796Z,960.2
2022-10-06T12:05:56.451Z,960.2
2022-10-06T12:06:59.063Z,960.2
2022-10-06T12:08:00.743Z,960.2
2022-10-06T12:09:02.351Z,960.2
2022-10-06T12:10:03.881Z,960.2
2022-10-06T12:11:05.407Z,960.2
2022-10-06T12:12:07.045Z,960.1
2022-10-06T12:15:06.328Z,960.1
2022-10-06T12:17:19.907Z,960.1
2022-10-06T12:18:21.805Z,960.1
2022-10-06T12:19:23.367Z,960.1
2022-10-06T12:20:24.930Z,960
2022-10-06T12:21:26.497Z,960
2022-10-06T12:22:28.174Z,960.1
2022-10-06T12:23:29.727Z,960
2022-10-06T12:24:31.326Z,960
2022-10-06T12:25:32.912Z,960
2022-10-06T12:26:34.475Z,959.9
2022-10-06T12:27:36.088Z,960
2022-10-06T12:28:37.889Z,960
2022-10-06T12:29:39.576Z,960
2022-10-06T12:30:41.397Z,959.9
2022-10-06T12:31:43.030Z,959.9
2022-10-06T12:32:44.652Z,959.9
2022-10-06T12:33:46.208Z,959.9
2022-10-06T12:34:47.749Z,959.9
2022-10-06T12:35:49.311Z,959.9
2022-10-06T12:36:50.919Z,959.9
2022-10-06T12:37:55.254Z,959.9
2022-10-06T12:38:56.797Z,959.9
2022-10-06T12:39:58.423Z,959.9
2022-10-06T12:40:59.974Z,959.9
2022-10-06T12:42:01.577Z,959.8
2022-10-06T12:43:03.322Z,959.8
2022-10-06T12:44:04.959Z,959.8
2022-10-06T12:45:06.506Z,959.8
2022-10-06T12:46:08.689Z,959.8
2022-10-06T12:47:10.285Z,959.8
2022-10-06T12:48:11.836Z,959.8
2022-10-06T12:49:16.306Z,959.8
2022-10-06T12:50:17.854Z,959.8
2022-10-06T12:51:19.698Z,959.8
2022-10-06T12:52:21.423Z,959.8
2022-10-06T12:53:23.125Z,959.8
2022-10-06T12:54:24.758Z,959.8
2022-10-06T12:55:26.357Z,959.8
2022-10-06T12:56:27.904Z,959.8
2022-10-06T12:57:29.590Z,959.8
2022-10-06T12:58:31.187Z,959.8
2022-10-06T12:59:32.832Z,959.8
2022-10-06T13:00:34.404Z,959.7
2022-10-06T13:01:36.444Z,959.7
2022-10-06T13:02:38.264Z,959.7
2022-10-06T13:03:39.906Z,959.6
2022-10-06T13:04:41.541Z,959.7
2022-10-06T13:05:43.161Z,959.6
2022-10-06T13:06:44.743Z,959.7
2022-10-06T13:07:46.328Z,959.6
2022-10-06T13:08:47.983Z,959.7
2022-10-06T13:09:49.519Z,959.7
2022-10-06T13:10:51.096Z,959.6
2022-10-06T13:11:52.669Z,959.6
2022-10-06T13:12:54.233Z,959.6
2022-10-06T13:13:55.856Z,959.5
2022-10-06T13:14:58.605Z,959.6
2022-10-06T13:16:00.935Z,959.6
2022-10-06T13:17:04.031Z,959.6
2022-10-06T13:18:05.725Z,959.6
2022-10-06T13:19:07.287Z,959.6
2022-10-06T13:20:08.836Z,959.6
2022-10-06T13:21:10.416Z,959.6
2022-10-06T13:22:12.010Z,959.6
2022-10-06T13:23:13.584Z,959.6
2022-10-06T13:24:15.180Z,959.6
2022-10-06T13:25:16.764Z,959.6
2022-10-06T13:26:18.331Z,959.6
2022-10-06T13:27:19.908Z,959.6
2022-10-06T13:28:21.907Z,959.6